Date,TemperatureHighF,TemperatureAvgF,TemperatureLowF,DewpointHighF,DewpointAvgF,DewpointLowF,HumidityHigh,HumidityAvg,HumidityLow,PressureMaxIn,PressureMinIn,WindSpeedMaxMPH,WindSpeedAvgMPH,GustSpeedMaxMPH,PrecipitationSumIn
2013-10-1,79.7,73.5,63.6,61.5,59.3,55.7,91,62,46,30.06,29.96,9,3,15,0.00
2013-10-2,83.5,75.8,65.3,65.9,62.4,59.4,87,64,47,30.08,30.00,10,3,14,0.00
2013-10-3,81.3,76.9,67.5,69.9,67.5,65.0,92,73,65,30.08,30.01,13,2,16,0.00
2013-10-4,84.5,77.8,70.4,73.3,70.7,67.4,96,80,58,30.07,30.00,11,2,13,0.00
2013-10-5,83.5,77.7,69.4,72.3,71.0,66.2,99,80,62,30.05,29.97,12,2,18,0.00
2013-10-6,83.1,78.9,74.0,75.5,73.0,71.5,96,83,73,29.99,29.85,16,3,19,0.00
2013-10-7,78.9,77.8,73.9,75.2,73.7,72.6,97,88,84,29.86,29.74,9,2,18,0.16
2013-10-8,77.6,69.5,62.6,74.0,65.7,58.3,92,88,85,29.98,29.77,22,5,28,0.00
2013-10-9,74.4,67.3,59.4,63.2,60.1,55.8,89,78,67,30.02,29.94,23,8,26,0.00
2013-10-10,77.0,71.2,58.4,62.0,60.3,50.1,89,69,53,29.98,29.88,19,6,22,0.00
2013-10-11,80.8,75.2,67.1,63.7,62.2,61.0,86,64,54,29.94,29.84,14,3,16,0.00
2013-10-12,79.9,75.7,68.3,67.5,65.1,62.4,91,71,60,29.98,29.86,7,0,12,0.00
2013-10-13,76.0,72.8,66.8,66.7,66.0,64.0,91,80,71,30.06,29.96,13,2,21,0.00
2013-10-14,74.8,72.3,68.8,68.1,66.3,65.4,89,82,78,30.05,29.97,14,4,19,0.01
2013-10-15,73.2,70.9,62.9,66.6,62.9,58.9,88,76,65,30.04,29.93,13,4,16,0.00
2013-10-16,74.0,70.9,65.3,65.5,63.1,61.2,93,77,72,29.97,29.89,11,1,13,0.00
2013-10-17,79.3,73.6,65.7,69.2,65.8,63.1,95,77,68,29.93,29.83,12,2,18,0.00
2013-10-18,82.8,77.0,73.2,72.8,69.9,67.0,97,79,68,29.92,29.83,11,2,14,0.00
2013-10-19,81.1,77.7,73.4,72.5,71.2,67.0,95,81,70,29.89,29.80,10,3,14,0.00
2013-10-20,76.5,71.4,64.1,71.9,64.5,57.8,86,79,68,29.99,29.83,12,3,15,0.00
2013-10-21,70.0,68.0,64.5,63.5,61.4,60.2,88,80,76,30.04,29.94,11,3,13,0.00
2013-10-22,68.5,67.5,65.1,61.9,59.7,56.4,81,76,67,29.95,29.78,6,0,8,0.00
2013-10-23,72.0,68.0,61.4,61.0,51.5,39.7,96,59,32,29.94,29.70,23,4,32,0.00
2013-10-24,68.6,62.1,49.3,45.5,40.9,34.7,64,47,37,30.13,29.94,13,3,16,0.00
2013-10-25,61.5,58.4,51.9,48.0,42.1,37.1,85,55,41,30.27,30.07,16,6,19,0.00
2013-10-26,65.6,58.6,43.7,49.6,42.1,35.2,75,55,47,30.26,30.07,11,3,15,0.00
2013-10-27,72.8,63.8,50.9,55.6,50.0,41.4,72,61,47,30.08,30.00,9,1,15,0.00
2013-10-28,75.8,68.5,59.5,60.1,57.2,55.2,87,68,53,30.18,30.05,8,1,10,0.00
2013-10-29,75.2,69.5,59.0,61.1,59.2,53.9,95,70,49,30.26,30.16,10,1,15,0.00
2013-10-30,77.0,70.0,59.3,63.4,60.6,55.5,98,73,49,30.25,30.12,10,1,15,0.00
2013-10-31,78.2,72.7,63.7,68.7,64.3,60.6,92,75,70,30.14,29.93,10,1,13,0.00